createdAt,value
2023-05-17T00:02:25.288Z,9.30
2023-05-17T00:04:54.081Z,9.30
2023-05-17T00:07:22.181Z,9.30
2023-05-17T00:09:50.221Z,9.30
2023-05-17T00:12:19.506Z,9.30
2023-05-17T00:14:47.480Z,9.30
2023-05-17T00:17:15.816Z,9.20
2023-05-17T00:19:43.851Z,9.20
2023-05-17T00:22:11.911Z,9.20
2023-05-17T00:24:39.906Z,9.20
2023-05-17T00:27:08.219Z,9.10
2023-05-17T00:29:37.479Z,9.20
2023-05-17T00:32:06.024Z,9.20
2023-05-17T00:34:33.992Z,9.10
2023-05-17T00:37:01.935Z,9.10
2023-05-17T00:39:29.879Z,9.10
2023-05-17T00:41:57.831Z,9.10
2023-05-17T00:44:25.760Z,9.00
2023-05-17T00:46:55.040Z,9.10
2023-05-17T00:49:22.979Z,9.10
2023-05-17T00:51:51.096Z,9.10
2023-05-17T00:54:19.737Z,9.10
2023-05-17T00:56:47.755Z,9.00
2023-05-17T00:59:16.691Z,9.00
2023-05-17T01:01:45.601Z,9.00
2023-05-17T01:04:15.026Z,9.00
2023-05-17T01:06:43.074Z,9.00
2023-05-17T01:09:11.300Z,9.00
2023-05-17T01:11:47.473Z,9.00
2023-05-17T01:14:30.665Z,9.00
2023-05-17T01:17:03.054Z,9.00
2023-05-17T01:19:58.180Z,9.00
2023-05-17T01:22:39.345Z,9.00
2023-05-17T01:25:21.227Z,8.90
2023-05-17T01:27:53.127Z,8.90
2023-05-17T01:30:21.967Z,8.90
2023-05-17T01:32:50.074Z,8.90
2023-05-17T01:35:18.598Z,8.80
2023-05-17T01:37:46.512Z,8.80
2023-05-17T01:40:14.772Z,8.80
2023-05-17T01:42:44.544Z,8.80
2023-05-17T01:45:20.187Z,8.80
2023-05-17T01:47:55.556Z,8.80
2023-05-17T01:50:25.532Z,8.80
2023-05-17T01:52:56.120Z,8.80
2023-05-17T01:55:30.047Z,8.70
2023-05-17T01:57:58.696Z,8.80
2023-05-17T02:00:30.423Z,8.70
2023-05-17T02:02:58.892Z,8.70
2023-05-17T02:05:26.985Z,8.70
2023-05-17T02:07:55.224Z,8.70
2023-05-17T02:10:23.564Z,8.60
2023-05-17T02:12:51.574Z,8.50
2023-05-17T02:15:19.647Z,8.50
2023-05-17T02:17:49.118Z,8.50
2023-05-17T02:20:17.068Z,8.60
2023-05-17T02:22:44.957Z,8.60
2023-05-17T02:25:12.982Z,8.60
2023-05-17T02:27:40.967Z,8.60
2023-05-17T02:30:09.583Z,8.50
2023-05-17T02:32:38.866Z,8.50
2023-05-17T02:35:09.502Z,8.50
2023-05-17T02:37:37.469Z,8.50
2023-05-17T02:40:09.884Z,8.50
2023-05-17T02:42:38.153Z,8.50
2023-05-17T02:45:06.806Z,8.50
2023-05-17T02:47:34.911Z,8.50
2023-05-17T02:50:02.952Z,8.50
2023-05-17T02:52:32.215Z,8.50
2023-05-17T02:55:00.118Z,8.50
2023-05-17T02:57:28.155Z,8.50
2023-05-17T02:59:56.116Z,8.50
2023-05-17T03:02:24.070Z,8.50
2023-05-17T03:04:52.675Z,8.40
2023-05-17T03:07:20.653Z,8.40
2023-05-17T03:09:49.958Z,8.30
2023-05-17T03:12:17.923Z,8.30
2023-05-17T03:14:45.874Z,8.30
2023-05-17T03:17:13.795Z,8.20
2023-05-17T03:19:41.874Z,8.20
2023-05-17T03:22:09.834Z,8.10
2023-05-17T03:24:37.842Z,8.10
2023-05-17T03:27:07.454Z,8.20
2023-05-17T03:29:35.467Z,8.10
2023-05-17T03:32:03.656Z,8.10
2023-05-17T03:34:31.651Z,8.10
2023-05-17T03:36:59.553Z,8.00
2023-05-17T03:39:27.422Z,8.00
2023-05-17T03:41:55.472Z,8.00
2023-05-17T03:44:24.701Z,8.00
2023-05-17T03:46:52.850Z,8.00
2023-05-17T03:49:20.987Z,8.00
2023-05-17T03:51:48.882Z,7.90
2023-05-17T03:54:16.815Z,8.00
2023-05-17T03:56:47.085Z,8.00
2023-05-17T03:59:15.089Z,8.00
2023-05-17T04:01:46.508Z,8.00
2023-05-17T04:04:14.575Z,8.00
2023-05-17T04:06:42.515Z,8.00
2023-05-17T04:09:13.019Z,8.00
2023-05-17T04:11:41.731Z,8.00
2023-05-17T04:14:09.722Z,8.00
2023-05-17T04:16:37.746Z,8.10
2023-05-17T04:19:07.148Z,8.10
2023-05-17T04:21:35.174Z,8.10
2023-05-17T04:24:03.215Z,8.10
2023-05-17T04:26:32.269Z,8.20
2023-05-17T04:29:00.316Z,8.20
2023-05-17T04:31:28.230Z,8.20
2023-05-17T04:33:56.223Z,8.20
2023-05-17T04:36:25.583Z,8.20
2023-05-17T04:38:53.588Z,8.20
2023-05-17T04:41:21.514Z,8.20
2023-05-17T04:43:49.404Z,8.20
2023-05-17T04:46:17.319Z,8.20
2023-05-17T04:48:45.348Z,8.30
2023-05-17T04:51:13.389Z,8.30
2023-05-17T04:53:42.731Z,8.30
2023-05-17T04:56:10.607Z,8.40
2023-05-17T04:58:38.557Z,8.40
2023-05-17T05:01:07.046Z,8.40
2023-05-17T05:03:34.981Z,8.40
2023-05-17T05:06:04.104Z,8.50
2023-05-17T05:08:32.041Z,8.50
2023-05-17T05:11:01.352Z,8.60
2023-05-17T05:13:29.240Z,8.60
2023-05-17T05:15:57.397Z,8.60
2023-05-17T05:18:25.524Z,8.60
2023-05-17T05:20:53.561Z,8.70
2023-05-17T05:23:21.485Z,8.70
2023-05-17T05:25:49.484Z,8.80
2023-05-17T05:28:18.947Z,8.80
2023-05-17T05:30:46.914Z,8.90
2023-05-17T05:33:14.995Z,8.90
2023-05-17T05:35:43.447Z,9.00
2023-05-17T05:38:11.456Z,9.00
2023-05-17T05:40:39.426Z,9.10
2023-05-17T05:43:07.363Z,9.20
2023-05-17T05:45:36.649Z,9.30
2023-05-17T05:48:05.614Z,9.30
2023-05-17T05:50:35.229Z,9.40
2023-05-17T05:53:17.114Z,9.50
2023-05-17T05:55:46.430Z,9.50
2023-05-17T05:58:14.406Z,9.60
2023-05-17T06:00:43.708Z,9.60
2023-05-17T06:03:11.854Z,9.70
2023-05-17T06:05:40.797Z,9.80
2023-05-17T06:08:08.998Z,9.80
2023-05-17T06:10:36.885Z,9.90
2023-05-17T06:13:04.900Z,9.90
2023-05-17T06:15:33.077Z,10.00
2023-05-17T06:18:02.637Z,10.10
2023-05-17T06:20:31.374Z,10.10
2023-05-17T06:22:59.678Z,10.20
2023-05-17T06:25:27.678Z,10.20
2023-05-17T06:27:55.591Z,10.30
2023-05-17T06:30:23.794Z,10.40
2023-05-17T06:35:20.990Z,10.50
2023-05-17T06:37:49.012Z,10.50
2023-05-17T06:40:19.066Z,10.60
2023-05-17T06:42:47.179Z,10.70
2023-05-17T06:45:15.511Z,10.80
2023-05-17T06:47:43.483Z,10.80
2023-05-17T06:50:11.982Z,10.90
2023-05-17T06:52:41.350Z,11.00
2023-05-17T06:55:10.294Z,11.00
2023-05-17T06:57:38.500Z,11.10
2023-05-17T07:00:10.935Z,11.20
2023-05-17T07:02:39.118Z,11.30
2023-05-17T07:05:08.265Z,11.40
2023-05-17T07:07:36.385Z,11.50
2023-05-17T07:10:06.543Z,11.60
2023-05-17T07:12:35.225Z,11.70
2023-05-17T07:15:03.252Z,11.70
2023-05-17T07:17:31.239Z,11.80
2023-05-17T07:19:59.381Z,11.80
2023-05-17T07:22:27.505Z,11.80
2023-05-17T07:24:55.616Z,11.90
2023-05-17T07:27:24.893Z,12.00
2023-05-17T07:29:52.890Z,12.00
2023-05-17T07:32:20.923Z,12.10
2023-05-17T07:34:48.954Z,12.20
2023-05-17T07:37:19.924Z,12.30
2023-05-17T07:39:47.854Z,12.30
2023-05-17T07:42:15.839Z,12.40
2023-05-17T07:44:45.155Z,12.50
2023-05-17T07:47:13.137Z,12.60
2023-05-17T07:49:41.148Z,12.70
2023-05-17T07:52:09.358Z,12.70
2023-05-17T07:54:37.213Z,12.70
2023-05-17T07:57:05.333Z,12.80
2023-05-17T07:59:33.382Z,12.80
2023-05-17T08:02:02.682Z,12.80
2023-05-17T08:04:30.704Z,12.80
2023-05-17T08:07:00.818Z,12.80
2023-05-17T08:09:28.780Z,12.70
2023-05-17T08:11:56.684Z,12.70
2023-05-17T08:14:26.915Z,12.70
2023-05-17T08:16:54.865Z,12.80
2023-05-17T08:19:24.311Z,12.80
2023-05-17T08:21:52.296Z,12.80
2023-05-17T08:24:20.319Z,12.80
2023-05-17T08:26:48.262Z,12.90
2023-05-17T08:29:16.224Z,13.00
2023-05-17T08:31:45.422Z,13.20
2023-05-17T08:34:13.519Z,13.30
2023-05-17T08:36:42.891Z,13.40
2023-05-17T08:39:10.926Z,13.50
2023-05-17T08:41:38.947Z,13.50
2023-05-17T08:44:07.245Z,13.50
2023-05-17T08:46:36.939Z,13.40
2023-05-17T08:49:07.880Z,13.40
2023-05-17T08:51:37.389Z,13.30
2023-05-17T08:54:08.408Z,13.30
2023-05-17T08:56:39.411Z,13.30
2023-05-17T08:59:09.582Z,13.20
2023-05-17T09:01:42.198Z,13.20
2023-05-17T09:04:11.751Z,13.30
2023-05-17T09:06:39.939Z,13.40
2023-05-17T09:09:11.170Z,13.50
2023-05-17T09:11:39.150Z,13.60
2023-05-17T09:14:08.127Z,13.60
2023-05-17T09:16:37.362Z,13.70
2023-05-17T09:19:06.776Z,13.60
2023-05-17T09:21:34.908Z,13.60
2023-05-17T09:24:07.078Z,13.70
2023-05-17T09:26:41.410Z,13.70
2023-05-17T09:29:10.979Z,13.70
2023-05-17T09:31:39.196Z,13.70
2023-05-17T09:34:08.736Z,13.70
2023-05-17T09:36:38.638Z,13.70
2023-05-17T12:05:36.617Z,15.60
2023-05-17T12:08:05.107Z,15.70
2023-05-17T12:10:34.854Z,15.70
2023-05-17T12:13:03.868Z,15.70
2023-05-17T12:15:32.711Z,15.70
2023-05-17T12:18:01.713Z,15.70
2023-05-17T12:20:33.218Z,15.80
2023-05-17T12:23:01.359Z,15.90
2023-05-17T12:25:29.696Z,15.90
2023-05-17T12:28:16.655Z,15.80
2023-05-17T12:30:44.817Z,15.80
2023-05-17T12:33:13.000Z,15.80
2023-05-17T12:35:42.614Z,15.70
2023-05-17T12:38:11.540Z,15.70
2023-05-17T12:40:43.356Z,15.60
2023-05-17T12:43:11.541Z,15.60
2023-05-17T12:45:43.016Z,15.60
2023-05-17T12:48:11.058Z,15.60
2023-05-17T12:50:39.859Z,15.70
2023-05-17T12:53:11.890Z,15.80
2023-05-17T12:55:39.885Z,15.70
2023-05-17T12:58:07.829Z,15.70
2023-05-17T13:00:35.786Z,15.70
2023-05-17T13:03:10.011Z,15.60
2023-05-17T13:05:39.871Z,15.40
2023-05-17T13:08:21.928Z,15.30
2023-05-17T13:10:51.175Z,15.20
2023-05-17T13:13:20.488Z,15.10
2023-05-17T13:15:48.738Z,15.00
2023-05-17T13:18:18.222Z,14.90
2023-05-17T13:20:46.307Z,14.90
2023-05-17T13:23:14.258Z,14.80
2023-05-17T13:25:43.725Z,14.70
2023-05-17T13:28:11.924Z,14.70
2023-05-17T13:30:40.175Z,14.70
2023-05-17T13:33:08.300Z,14.60
2023-05-17T13:35:37.469Z,14.60
2023-05-17T13:38:07.039Z,14.60
2023-05-17T13:40:34.983Z,14.60
2023-05-17T13:43:04.343Z,14.50
2023-05-17T13:45:32.345Z,14.50
2023-05-17T13:48:00.598Z,14.50
2023-05-17T13:50:29.224Z,14.40
2023-05-17T13:52:57.406Z,14.40
2023-05-17T13:55:25.633Z,14.40
2023-05-17T13:57:54.084Z,14.40
2023-05-17T14:00:24.063Z,14.40
2023-05-17T14:02:52.051Z,14.30
2023-05-17T14:05:20.236Z,14.30
2023-05-17T14:07:48.267Z,14.30
2023-05-17T14:10:16.178Z,14.30
2023-05-17T14:12:44.160Z,14.30
2023-05-17T14:15:12.579Z,14.20
2023-05-17T14:17:41.971Z,14.20
2023-05-17T14:20:11.155Z,14.10
2023-05-17T14:22:39.243Z,14.10
2023-05-17T14:25:08.219Z,14.20
2023-05-17T14:27:36.485Z,14.10
2023-05-17T14:30:05.075Z,14.10
2023-05-17T14:32:33.054Z,14.20
2023-05-17T14:35:02.449Z,14.20
2023-05-17T14:37:30.400Z,14.30
2023-05-17T14:40:05.978Z,14.30
2023-05-17T14:42:35.177Z,14.40
2023-05-17T14:45:03.342Z,14.40
2023-05-17T14:47:31.327Z,14.40
2023-05-17T14:49:59.332Z,14.50
2023-05-17T14:52:28.694Z,14.50
2023-05-17T14:54:56.704Z,14.50
2023-05-17T14:57:24.676Z,14.50
2023-05-17T14:59:52.665Z,14.50
2023-05-17T15:02:20.862Z,14.50
2023-05-17T15:04:48.977Z,14.50
2023-05-17T15:07:17.061Z,14.50
2023-05-17T15:09:46.505Z,14.50
2023-05-17T15:12:14.539Z,14.50
2023-05-17T15:14:46.525Z,14.50
2023-05-17T15:17:14.506Z,14.50
2023-05-17T15:19:42.607Z,14.50
2023-05-17T15:22:10.603Z,14.50
2023-05-17T15:24:39.515Z,14.60
2023-05-17T15:27:08.871Z,14.60
2023-05-17T15:29:38.867Z,14.70
2023-05-17T15:32:09.300Z,14.70
2023-05-17T15:34:37.263Z,14.70
2023-05-17T15:37:05.639Z,14.80
2023-05-17T15:39:33.800Z,14.70
2023-05-17T15:42:02.169Z,14.70
2023-05-17T15:44:31.489Z,14.70
2023-05-17T15:47:00.777Z,14.60
2023-05-17T15:49:30.537Z,14.60
2023-05-17T15:51:58.519Z,14.60
2023-05-17T15:54:26.684Z,14.50
2023-05-17T15:56:54.900Z,14.50
2023-05-17T15:59:22.851Z,14.50
2023-05-17T16:01:52.276Z,14.50
2023-05-17T16:04:20.321Z,14.40
2023-05-17T16:06:48.443Z,14.40
2023-05-17T16:09:16.746Z,14.40
2023-05-17T16:11:44.793Z,14.40
2023-05-17T16:14:12.743Z,14.40
2023-05-17T16:16:41.628Z,14.40
2023-05-17T16:19:12.773Z,14.40
2023-05-17T16:21:41.050Z,14.40
2023-05-17T16:24:09.944Z,14.40
2023-05-17T16:26:38.476Z,14.40
2023-05-17T16:29:06.792Z,14.50
2023-05-17T16:31:34.721Z,14.50
2023-05-17T16:34:02.748Z,14.60
2023-05-17T16:36:32.133Z,14.60
2023-05-17T16:39:00.118Z,14.60
2023-05-17T16:41:30.869Z,14.60
2023-05-17T16:43:58.846Z,14.50
2023-05-17T16:46:27.042Z,14.50
2023-05-17T16:48:55.605Z,14.40
2023-05-17T16:51:24.331Z,14.50
2023-05-17T16:53:53.656Z,14.40
2023-05-17T16:56:22.313Z,14.40
2023-05-17T16:58:52.295Z,14.40
2023-05-17T17:01:20.271Z,14.40
2023-05-17T17:03:48.367Z,14.40
2023-05-17T17:06:16.357Z,14.40
2023-05-17T17:08:44.304Z,14.30
2023-05-17T17:11:13.545Z,14.30
2023-05-17T17:13:41.563Z,14.30
2023-05-17T17:16:09.565Z,14.30
2023-05-17T17:18:37.553Z,14.30
2023-05-17T17:21:07.645Z,14.20
2023-05-17T17:23:36.646Z,14.20
2023-05-17T17:26:04.707Z,14.10
2023-05-17T17:28:34.021Z,14.10
2023-05-17T17:31:02.007Z,14.10
2023-05-17T17:33:30.102Z,14.00
2023-05-17T17:36:00.797Z,14.00
2023-05-17T17:38:28.786Z,14.00
2023-05-17T17:40:56.794Z,14.00
2023-05-17T17:43:24.991Z,14.10
2023-05-17T17:45:54.337Z,14.10
2023-05-17T17:48:22.299Z,14.10
2023-05-17T17:50:50.392Z,14.10
2023-05-17T17:53:18.427Z,14.00
2023-05-17T17:55:46.375Z,14.00
2023-05-17T17:58:14.468Z,14.00
2023-05-17T18:00:42.726Z,14.00
2023-05-17T18:03:12.769Z,13.90
2023-05-17T18:05:40.906Z,13.90
2023-05-17T18:08:09.296Z,13.90
2023-05-17T18:10:37.350Z,13.80
2023-05-17T18:13:05.573Z,13.80
2023-05-17T18:15:33.485Z,13.80
2023-05-17T18:18:01.479Z,13.70
2023-05-17T18:20:31.733Z,13.70
2023-05-17T18:23:00.124Z,13.70
2023-05-17T18:25:28.113Z,13.60
2023-05-17T18:27:56.117Z,13.60
2023-05-17T18:30:24.875Z,13.60
2023-05-17T18:32:52.925Z,13.50
2023-05-17T18:35:20.984Z,13.50
2023-05-17T18:37:50.287Z,13.50
2023-05-17T18:40:18.478Z,13.40
2023-05-17T18:42:46.457Z,13.40
2023-05-17T18:45:14.580Z,13.30
2023-05-17T18:47:42.567Z,13.30
2023-05-17T18:50:10.802Z,13.30
2023-05-17T18:52:39.893Z,13.20
2023-05-17T18:55:09.959Z,13.10
2023-05-17T18:57:37.974Z,13.00
2023-05-17T19:00:07.680Z,12.90
2023-05-17T19:02:35.684Z,12.80
2023-05-17T19:05:03.665Z,12.70
2023-05-17T19:07:31.597Z,12.70
2023-05-17T19:09:59.526Z,12.60
2023-05-17T19:12:28.804Z,12.60
2023-05-17T19:14:56.765Z,12.60
2023-05-17T19:17:24.820Z,12.50
2023-05-17T19:19:52.874Z,12.50
2023-05-17T19:22:20.856Z,12.40
2023-05-17T19:24:50.121Z,12.40
2023-05-17T19:27:19.918Z,12.40
2023-05-17T19:29:49.700Z,12.30
2023-05-17T19:32:17.614Z,12.30
2023-05-17T19:34:45.994Z,12.20
2023-05-17T19:37:13.978Z,12.20
2023-05-17T19:39:41.944Z,12.20
2023-05-17T19:42:09.881Z,12.20
2023-05-17T19:44:37.832Z,12.10
2023-05-17T19:47:07.700Z,12.10
2023-05-17T19:49:35.776Z,12.10
2023-05-17T19:52:03.760Z,12.10
2023-05-17T19:54:31.908Z,12.10
2023-05-17T19:56:59.935Z,12.00
2023-05-17T19:59:27.853Z,12.00
2023-05-17T20:01:56.003Z,12.00
2023-05-17T20:04:25.334Z,12.00
2023-05-17T20:06:53.287Z,12.00
2023-05-17T20:09:21.281Z,11.90
2023-05-17T20:11:49.268Z,11.80
2023-05-17T20:14:17.227Z,11.80
2023-05-17T20:16:45.318Z,11.80
2023-05-17T20:19:13.461Z,11.70
2023-05-17T20:21:43.011Z,11.60
2023-05-17T20:24:11.177Z,11.60
2023-05-17T20:26:39.552Z,11.60
2023-05-17T20:29:08.360Z,11.50
2023-05-17T20:31:38.374Z,11.50
2023-05-17T20:34:06.877Z,11.40
2023-05-17T20:36:34.861Z,11.40
2023-05-17T20:39:04.430Z,11.30
2023-05-17T20:41:32.375Z,11.30
2023-05-17T20:44:00.677Z,11.20
2023-05-17T20:46:29.896Z,11.20
2023-05-17T20:48:58.086Z,11.10
2023-05-17T20:51:27.295Z,11.10
2023-05-17T20:53:55.481Z,11.00
2023-05-17T20:56:25.542Z,11.00
2023-05-17T20:58:53.582Z,10.90
2023-05-17T21:01:22.579Z,10.90
2023-05-17T21:03:51.393Z,10.80
2023-05-17T21:06:19.614Z,10.80
2023-05-17T21:08:47.594Z,10.80
2023-05-17T21:11:20.957Z,10.80
2023-05-17T21:13:50.982Z,10.80
2023-05-17T21:16:19.130Z,10.70
2023-05-17T21:18:47.186Z,10.60
2023-05-17T21:21:15.184Z,10.60
2023-05-17T21:23:43.127Z,10.50
2023-05-17T21:26:11.116Z,10.50
2023-05-17T21:28:39.042Z,10.50
2023-05-17T21:31:08.477Z,10.40
2023-05-17T21:33:38.459Z,10.40
2023-05-17T21:36:06.887Z,10.30
2023-05-17T21:38:34.874Z,10.30
2023-05-17T21:41:02.845Z,10.20
2023-05-17T21:43:30.869Z,10.20
2023-05-17T21:45:58.771Z,10.20
2023-05-17T21:48:28.248Z,10.20
2023-05-17T21:50:56.172Z,10.10
2023-05-17T21:53:24.178Z,10.10
2023-05-17T21:58:24.771Z,10.10
2023-05-17T22:00:53.261Z,10.10
2023-05-17T22:03:21.288Z,10.10
2023-05-17T22:05:51.038Z,10.10
2023-05-17T22:08:19.033Z,10.10
2023-05-17T22:10:47.551Z,10.00
2023-05-17T22:13:18.104Z,10.00
2023-05-17T22:15:46.323Z,9.90
2023-05-17T22:18:14.336Z,9.90
2023-05-17T22:20:42.536Z,9.80
2023-05-17T22:23:11.859Z,9.90
2023-05-17T22:25:39.819Z,9.80
2023-05-17T22:28:07.829Z,9.80
2023-05-17T22:30:35.851Z,9.80
2023-05-17T22:33:03.823Z,9.80
2023-05-17T22:35:31.787Z,9.80
2023-05-17T22:37:59.733Z,9.80
2023-05-17T22:40:29.175Z,9.80
2023-05-17T22:42:58.141Z,9.80
2023-05-17T22:45:32.746Z,9.70
2023-05-17T22:48:02.945Z,9.70
2023-05-17T22:50:34.574Z,9.70
2023-05-17T22:53:02.615Z,9.60
2023-05-17T22:55:32.109Z,9.60
2023-05-17T22:58:00.394Z,9.50
2023-05-17T23:00:28.338Z,9.50
2023-05-17T23:02:56.366Z,9.50
2023-05-17T23:05:24.613Z,9.50
2023-05-17T23:07:53.430Z,9.50
2023-05-17T23:10:21.551Z,9.50
2023-05-17T23:12:52.265Z,9.50
2023-05-17T23:15:20.660Z,9.50
2023-05-17T23:17:48.664Z,9.50
2023-05-17T23:20:16.670Z,9.40
2023-05-17T23:22:44.668Z,9.30
2023-05-17T23:25:12.574Z,9.20
2023-05-17T23:27:40.920Z,9.20
2023-05-17T23:30:11.195Z,9.10
2023-05-17T23:32:39.185Z,9.10
2023-05-17T23:35:09.639Z,9.20
2023-05-17T23:37:38.047Z,9.10
2023-05-17T23:40:07.410Z,9.10
2023-05-17T23:42:35.577Z,9.10
2023-05-17T23:45:04.129Z,9.10
2023-05-17T23:47:33.733Z,9.00
2023-05-17T23:50:02.907Z,9.10
2023-05-17T23:52:32.610Z,9.10
2023-05-17T23:55:01.609Z,9.00
2023-05-17T23:57:29.664Z,8.90
2023-05-17T23:59:57.674Z,9.00
